sensor_id;sensor_type;location;lat;lon;timestamp;P1;durP1;ratioP1;P2;durP2;ratioP2
23682;SDS011;24897;53.514;10.482;2022-11-20T00:02:38;36.80;;;33.20;;
23682;SDS011;24897;53.514;10.482;2022-11-20T00:05:22;36.73;;;33.13;;
23682;SDS011;24897;53.514;10.482;2022-11-20T00:08:06;37.53;;;33.83;;
23682;SDS011;24897;53.514;10.482;2022-11-20T00:10:50;37.03;;;33.33;;
23682;SDS011;24897;53.514;10.482;2022-11-20T00:13:35;37.97;;;34.07;;
23682;SDS011;24897;53.514;10.482;2022-11-20T00:16:20;36.80;;;33.13;;
23682;SDS011;24897;53.514;10.482;2022-11-20T00:19:06;36.40;;;32.70;;
23682;SDS011;24897;53.514;10.482;2022-11-20T00:21:50;36.80;;;32.77;;
23682;SDS011;24897;53.514;10.482;2022-11-20T00:24:37;38.13;;;34.23;;
23682;SDS011;24897;53.514;10.482;2022-11-20T00:27:21;35.07;;;31.47;;
23682;SDS011;24897;53.514;10.482;2022-11-20T00:30:06;35.70;;;31.90;;
23682;SDS011;24897;53.514;10.482;2022-11-20T00:32:51;37.87;;;32.73;;
23682;SDS011;24897;53.514;10.482;2022-11-20T00:35:35;35.70;;;32.00;;
23682;SDS011;24897;53.514;10.482;2022-11-20T00:38:19;36.13;;;32.33;;
23682;SDS011;24897;53.514;10.482;2022-11-20T00:41:05;37.03;;;33.13;;
23682;SDS011;24897;53.514;10.482;2022-11-20T00:43:51;36.30;;;32.50;;
23682;SDS011;24897;53.514;10.482;2022-11-20T00:46:37;35.97;;;32.17;;
23682;SDS011;24897;53.514;10.482;2022-11-20T00:49:21;34.70;;;31.00;;
23682;SDS011;24897;53.514;10.482;2022-11-20T00:52:06;35.87;;;32.17;;
23682;SDS011;24897;53.514;10.482;2022-11-20T00:54:50;35.00;;;31.23;;
23682;SDS011;24897;53.514;10.482;2022-11-20T00:57:35;34.93;;;31.33;;
23682;SDS011;24897;53.514;10.482;2022-11-20T01:00:19;35.17;;;31.40;;
23682;SDS011;24897;53.514;10.482;2022-11-20T01:03:03;34.77;;;31.07;;
23682;SDS011;24897;53.514;10.482;2022-11-20T01:05:47;36.03;;;32.23;;
23682;SDS011;24897;53.514;10.482;2022-11-20T01:08:31;36.90;;;33.00;;
23682;SDS011;24897;53.514;10.482;2022-11-20T01:11:21;36.97;;;32.97;;
23682;SDS011;24897;53.514;10.482;2022-11-20T01:14:13;38.93;;;33.63;;
23682;SDS011;24897;53.514;10.482;2022-11-20T01:16:59;37.77;;;33.53;;
23682;SDS011;24897;53.514;10.482;2022-11-20T01:19:44;36.37;;;32.30;;
23682;SDS011;24897;53.514;10.482;2022-11-20T01:22:28;41.37;;;32.53;;
23682;SDS011;24897;53.514;10.482;2022-11-20T01:25:12;37.60;;;33.47;;
23682;SDS011;24897;53.514;10.482;2022-11-20T01:28:00;38.00;;;33.57;;
23682;SDS011;24897;53.514;10.482;2022-11-20T01:30:47;40.90;;;34.00;;
23682;SDS011;24897;53.514;10.482;2022-11-20T01:33:31;40.17;;;34.77;;
23682;SDS011;24897;53.514;10.482;2022-11-20T01:36:15;37.43;;;32.30;;
23682;SDS011;24897;53.514;10.482;2022-11-20T01:39:06;40.73;;;33.93;;
23682;SDS011;24897;53.514;10.482;2022-11-20T01:41:54;43.07;;;33.03;;
23682;SDS011;24897;53.514;10.482;2022-11-20T01:44:59;40.93;;;34.10;;
23682;SDS011;24897;53.514;10.482;2022-11-20T01:47:44;40.83;;;33.47;;
23682;SDS011;24897;53.514;10.482;2022-11-20T01:50:30;40.13;;;32.63;;
23682;SDS011;24897;53.514;10.482;2022-11-20T01:53:15;43.47;;;34.57;;
23682;SDS011;24897;53.514;10.482;2022-11-20T01:56:02;39.77;;;33.80;;
23682;SDS011;24897;53.514;10.482;2022-11-20T01:58:51;39.13;;;33.73;;
23682;SDS011;24897;53.514;10.482;2022-11-20T02:01:37;41.17;;;34.00;;
23682;SDS011;24897;53.514;10.482;2022-11-20T02:04:22;38.23;;;31.90;;
23682;SDS011;24897;53.514;10.482;2022-11-20T02:07:08;44.47;;;32.97;;
23682;SDS011;24897;53.514;10.482;2022-11-20T02:09:52;41.67;;;34.17;;
23682;SDS011;24897;53.514;10.482;2022-11-20T02:12:36;39.10;;;32.60;;
23682;SDS011;24897;53.514;10.482;2022-11-20T02:15:39;40.40;;;33.90;;
23682;SDS011;24897;53.514;10.482;2022-11-20T02:18:24;38.67;;;32.63;;
23682;SDS011;24897;53.514;10.482;2022-11-20T02:24:19;41.50;;;33.53;;
23682;SDS011;24897;53.514;10.482;2022-11-20T02:27:10;43.20;;;34.63;;
23682;SDS011;24897;53.514;10.482;2022-11-20T02:29:57;38.73;;;32.97;;
23682;SDS011;24897;53.514;10.482;2022-11-20T02:32:45;38.50;;;32.97;;
23682;SDS011;24897;53.514;10.482;2022-11-20T02:38:14;39.63;;;33.80;;
23682;SDS011;24897;53.514;10.482;2022-11-20T02:40:59;39.87;;;33.30;;
23682;SDS011;24897;53.514;10.482;2022-11-20T02:43:43;38.80;;;32.73;;
23682;SDS011;24897;53.514;10.482;2022-11-20T02:46:28;40.13;;;33.37;;
23682;SDS011;24897;53.514;10.482;2022-11-20T02:49:12;40.37;;;34.20;;
23682;SDS011;24897;53.514;10.482;2022-11-20T02:51:57;39.50;;;32.70;;
23682;SDS011;24897;53.514;10.482;2022-11-20T02:54:42;39.73;;;34.43;;
23682;SDS011;24897;53.514;10.482;2022-11-20T02:57:26;42.30;;;34.57;;
23682;SDS011;24897;53.514;10.482;2022-11-20T03:00:12;41.80;;;34.33;;
23682;SDS011;24897;53.514;10.482;2022-11-20T03:02:56;41.97;;;33.53;;
23682;SDS011;24897;53.514;10.482;2022-11-20T03:05:40;44.23;;;35.00;;
23682;SDS011;24897;53.514;10.482;2022-11-20T03:08:25;44.43;;;36.27;;
23682;SDS011;24897;53.514;10.482;2022-11-20T03:11:10;42.10;;;34.40;;
23682;SDS011;24897;53.514;10.482;2022-11-20T03:13:54;45.00;;;35.37;;
23682;SDS011;24897;53.514;10.482;2022-11-20T03:16:38;45.73;;;35.97;;
23682;SDS011;24897;53.514;10.482;2022-11-20T03:19:23;46.53;;;35.73;;
23682;SDS011;24897;53.514;10.482;2022-11-20T03:22:08;43.93;;;35.30;;
23682;SDS011;24897;53.514;10.482;2022-11-20T03:24:53;45.87;;;35.40;;
23682;SDS011;24897;53.514;10.482;2022-11-20T03:27:38;46.00;;;34.20;;
23682;SDS011;24897;53.514;10.482;2022-11-20T03:30:22;44.73;;;33.80;;
23682;SDS011;24897;53.514;10.482;2022-11-20T03:33:06;42.83;;;33.97;;
23682;SDS011;24897;53.514;10.482;2022-11-20T03:35:50;46.47;;;35.30;;
23682;SDS011;24897;53.514;10.482;2022-11-20T03:38:34;44.23;;;34.70;;
23682;SDS011;24897;53.514;10.482;2022-11-20T03:41:20;46.60;;;35.60;;
23682;SDS011;24897;53.514;10.482;2022-11-20T03:44:09;45.27;;;34.33;;
23682;SDS011;24897;53.514;10.482;2022-11-20T03:46:54;46.73;;;35.53;;
23682;SDS011;24897;53.514;10.482;2022-11-20T03:49:38;48.30;;;36.07;;
23682;SDS011;24897;53.514;10.482;2022-11-20T03:52:22;43.00;;;33.97;;
23682;SDS011;24897;53.514;10.482;2022-11-20T03:55:07;43.83;;;35.47;;
23682;SDS011;24897;53.514;10.482;2022-11-20T03:57:52;46.33;;;34.73;;
23682;SDS011;24897;53.514;10.482;2022-11-20T04:00:36;46.10;;;35.10;;
23682;SDS011;24897;53.514;10.482;2022-11-20T04:03:20;45.87;;;36.17;;
23682;SDS011;24897;53.514;10.482;2022-11-20T04:06:09;45.93;;;35.50;;
23682;SDS011;24897;53.514;10.482;2022-11-20T04:08:56;49.33;;;37.23;;
23682;SDS011;24897;53.514;10.482;2022-11-20T04:11:41;41.83;;;34.27;;
23682;SDS011;24897;53.514;10.482;2022-11-20T04:14:26;42.80;;;33.97;;
23682;SDS011;24897;53.514;10.482;2022-11-20T04:17:09;47.43;;;35.20;;
23682;SDS011;24897;53.514;10.482;2022-11-20T04:19:54;42.60;;;34.17;;
23682;SDS011;24897;53.514;10.482;2022-11-20T04:22:37;47.83;;;36.63;;
23682;SDS011;24897;53.514;10.482;2022-11-20T04:25:21;44.13;;;34.83;;
23682;SDS011;24897;53.514;10.482;2022-11-20T04:28:05;42.53;;;34.90;;
23682;SDS011;24897;53.514;10.482;2022-11-20T04:30:50;42.87;;;34.37;;
23682;SDS011;24897;53.514;10.482;2022-11-20T04:33:34;44.67;;;34.60;;
23682;SDS011;24897;53.514;10.482;2022-11-20T04:36:23;40.73;;;33.40;;
23682;SDS011;24897;53.514;10.482;2022-11-20T04:39:12;45.63;;;34.63;;
23682;SDS011;24897;53.514;10.482;2022-11-20T04:41:58;48.30;;;36.97;;
23682;SDS011;24897;53.514;10.482;2022-11-20T04:45:02;44.00;;;34.03;;
23682;SDS011;24897;53.514;10.482;2022-11-20T04:47:46;51.53;;;36.97;;
23682;SDS011;24897;53.514;10.482;2022-11-20T04:50:30;46.60;;;35.33;;
23682;SDS011;24897;53.514;10.482;2022-11-20T04:53:15;46.73;;;35.07;;
23682;SDS011;24897;53.514;10.482;2022-11-20T04:55:59;44.13;;;35.23;;
23682;SDS011;24897;53.514;10.482;2022-11-20T04:58:45;43.83;;;34.60;;
23682;SDS011;24897;53.514;10.482;2022-11-20T05:01:29;45.40;;;35.53;;
23682;SDS011;24897;53.514;10.482;2022-11-20T05:04:13;45.90;;;35.93;;
23682;SDS011;24897;53.514;10.482;2022-11-20T05:06:57;48.00;;;35.30;;
23682;SDS011;24897;53.514;10.482;2022-11-20T05:09:41;45.03;;;35.93;;
23682;SDS011;24897;53.514;10.482;2022-11-20T05:12:26;46.90;;;36.53;;
23682;SDS011;24897;53.514;10.482;2022-11-20T05:15:12;53.00;;;36.60;;
23682;SDS011;24897;53.514;10.482;2022-11-20T05:17:56;49.40;;;35.73;;
23682;SDS011;24897;53.514;10.482;2022-11-20T05:20:41;46.17;;;36.13;;
23682;SDS011;24897;53.514;10.482;2022-11-20T05:23:25;44.83;;;34.93;;
23682;SDS011;24897;53.514;10.482;2022-11-20T05:26:28;46.00;;;35.17;;
23682;SDS011;24897;53.514;10.482;2022-11-20T05:29:12;49.30;;;37.07;;
23682;SDS011;24897;53.514;10.482;2022-11-20T05:31:56;43.60;;;34.90;;
23682;SDS011;24897;53.514;10.482;2022-11-20T05:34:41;48.27;;;35.67;;
23682;SDS011;24897;53.514;10.482;2022-11-20T05:37:25;44.83;;;34.57;;
23682;SDS011;24897;53.514;10.482;2022-11-20T05:40:10;46.10;;;35.20;;
23682;SDS011;24897;53.514;10.482;2022-11-20T05:42:57;43.13;;;33.73;;
23682;SDS011;24897;53.514;10.482;2022-11-20T05:45:41;45.77;;;35.07;;
23682;SDS011;24897;53.514;10.482;2022-11-20T05:48:25;48.23;;;36.83;;
23682;SDS011;24897;53.514;10.482;2022-11-20T05:51:11;46.13;;;35.07;;
23682;SDS011;24897;53.514;10.482;2022-11-20T05:53:57;45.70;;;36.17;;
23682;SDS011;24897;53.514;10.482;2022-11-20T05:56:42;49.57;;;36.53;;
23682;SDS011;24897;53.514;10.482;2022-11-20T05:59:26;45.77;;;36.07;;
23682;SDS011;24897;53.514;10.482;2022-11-20T06:02:11;44.33;;;35.03;;
23682;SDS011;24897;53.514;10.482;2022-11-20T06:04:55;46.30;;;35.70;;
23682;SDS011;24897;53.514;10.482;2022-11-20T06:07:40;43.40;;;34.60;;
23682;SDS011;24897;53.514;10.482;2022-11-20T06:10:24;45.60;;;33.90;;
23682;SDS011;24897;53.514;10.482;2022-11-20T06:13:08;44.47;;;34.93;;
23682;SDS011;24897;53.514;10.482;2022-11-20T06:15:53;46.40;;;36.30;;
23682;SDS011;24897;53.514;10.482;2022-11-20T06:18:37;45.83;;;34.83;;
23682;SDS011;24897;53.514;10.482;2022-11-20T06:21:22;43.77;;;34.20;;
23682;SDS011;24897;53.514;10.482;2022-11-20T06:24:08;46.13;;;35.93;;
23682;SDS011;24897;53.514;10.482;2022-11-20T06:26:53;43.57;;;34.17;;
23682;SDS011;24897;53.514;10.482;2022-11-20T06:29:37;44.53;;;35.03;;
23682;SDS011;24897;53.514;10.482;2022-11-20T06:32:21;43.73;;;34.63;;
23682;SDS011;24897;53.514;10.482;2022-11-20T06:35:06;42.67;;;34.73;;
23682;SDS011;24897;53.514;10.482;2022-11-20T06:37:50;45.00;;;36.03;;
23682;SDS011;24897;53.514;10.482;2022-11-20T06:40:34;45.00;;;35.93;;
23682;SDS011;24897;53.514;10.482;2022-11-20T06:43:18;43.53;;;34.57;;
23682;SDS011;24897;53.514;10.482;2022-11-20T06:46:02;45.87;;;35.33;;
23682;SDS011;24897;53.514;10.482;2022-11-20T06:48:48;45.90;;;35.00;;
23682;SDS011;24897;53.514;10.482;2022-11-20T06:51:32;45.37;;;33.80;;
23682;SDS011;24897;53.514;10.482;2022-11-20T06:54:17;45.27;;;34.73;;
23682;SDS011;24897;53.514;10.482;2022-11-20T06:57:01;43.90;;;34.43;;
23682;SDS011;24897;53.514;10.482;2022-11-20T06:59:45;46.40;;;36.33;;
23682;SDS011;24897;53.514;10.482;2022-11-20T07:02:29;47.23;;;36.67;;
23682;SDS011;24897;53.514;10.482;2022-11-20T07:05:14;44.37;;;34.90;;
23682;SDS011;24897;53.514;10.482;2022-11-20T07:07:58;46.07;;;36.23;;
23682;SDS011;24897;53.514;10.482;2022-11-20T07:10:43;42.37;;;34.67;;
23682;SDS011;24897;53.514;10.482;2022-11-20T07:13:27;48.73;;;37.10;;
23682;SDS011;24897;53.514;10.482;2022-11-20T07:16:12;40.80;;;33.63;;
23682;SDS011;24897;53.514;10.482;2022-11-20T07:18:57;41.87;;;33.93;;
23682;SDS011;24897;53.514;10.482;2022-11-20T07:21:41;44.13;;;34.97;;
23682;SDS011;24897;53.514;10.482;2022-11-20T07:24:25;42.60;;;34.70;;
23682;SDS011;24897;53.514;10.482;2022-11-20T07:27:10;47.60;;;36.50;;
23682;SDS011;24897;53.514;10.482;2022-11-20T07:29:54;43.43;;;34.87;;
23682;SDS011;24897;53.514;10.482;2022-11-20T07:32:38;46.73;;;36.13;;
23682;SDS011;24897;53.514;10.482;2022-11-20T07:35:23;47.37;;;36.20;;
23682;SDS011;24897;53.514;10.482;2022-11-20T07:38:08;49.40;;;37.00;;
23682;SDS011;24897;53.514;10.482;2022-11-20T07:40:53;44.50;;;34.80;;
23682;SDS011;24897;53.514;10.482;2022-11-20T07:43:39;47.87;;;36.97;;
23682;SDS011;24897;53.514;10.482;2022-11-20T07:46:23;43.80;;;34.73;;
23682;SDS011;24897;53.514;10.482;2022-11-20T07:49:07;42.47;;;33.60;;
23682;SDS011;24897;53.514;10.482;2022-11-20T07:51:52;47.77;;;35.77;;
23682;SDS011;24897;53.514;10.482;2022-11-20T07:54:39;42.07;;;33.20;;
23682;SDS011;24897;53.514;10.482;2022-11-20T07:57:23;46.33;;;37.03;;
23682;SDS011;24897;53.514;10.482;2022-11-20T08:00:08;45.47;;;34.43;;
23682;SDS011;24897;53.514;10.482;2022-11-20T08:02:54;43.03;;;34.60;;
23682;SDS011;24897;53.514;10.482;2022-11-20T08:05:38;41.63;;;33.97;;
23682;SDS011;24897;53.514;10.482;2022-11-20T08:08:22;43.57;;;35.93;;
23682;SDS011;24897;53.514;10.482;2022-11-20T08:11:06;43.17;;;35.53;;
23682;SDS011;24897;53.514;10.482;2022-11-20T08:14:10;45.80;;;36.10;;
23682;SDS011;24897;53.514;10.482;2022-11-20T08:16:55;43.20;;;34.87;;
23682;SDS011;24897;53.514;10.482;2022-11-20T08:19:39;41.27;;;33.43;;
23682;SDS011;24897;53.514;10.482;2022-11-20T08:22:23;42.03;;;35.10;;
23682;SDS011;24897;53.514;10.482;2022-11-20T08:25:08;41.43;;;35.77;;
23682;SDS011;24897;53.514;10.482;2022-11-20T08:27:52;41.13;;;34.73;;
23682;SDS011;24897;53.514;10.482;2022-11-20T08:30:37;42.33;;;34.60;;
23682;SDS011;24897;53.514;10.482;2022-11-20T08:33:21;41.50;;;33.83;;
23682;SDS011;24897;53.514;10.482;2022-11-20T08:36:06;42.23;;;36.30;;
23682;SDS011;24897;53.514;10.482;2022-11-20T08:38:51;40.33;;;34.50;;
23682;SDS011;24897;53.514;10.482;2022-11-20T08:41:36;41.37;;;35.07;;
23682;SDS011;24897;53.514;10.482;2022-11-20T08:44:21;43.17;;;34.00;;
23682;SDS011;24897;53.514;10.482;2022-11-20T08:47:05;39.60;;;33.43;;
23682;SDS011;24897;53.514;10.482;2022-11-20T08:49:49;38.53;;;32.17;;
23682;SDS011;24897;53.514;10.482;2022-11-20T08:52:33;41.87;;;35.97;;
23682;SDS011;24897;53.514;10.482;2022-11-20T08:55:17;39.37;;;33.97;;
23682;SDS011;24897;53.514;10.482;2022-11-20T08:58:05;39.83;;;33.50;;
23682;SDS011;24897;53.514;10.482;2022-11-20T09:00:49;36.00;;;31.73;;
23682;SDS011;24897;53.514;10.482;2022-11-20T09:03:33;39.90;;;34.50;;
23682;SDS011;24897;53.514;10.482;2022-11-20T09:06:18;36.70;;;31.00;;
23682;SDS011;24897;53.514;10.482;2022-11-20T09:09:02;38.03;;;31.80;;
23682;SDS011;24897;53.514;10.482;2022-11-20T09:11:47;38.07;;;32.63;;
23682;SDS011;24897;53.514;10.482;2022-11-20T09:14:33;38.43;;;32.47;;
23682;SDS011;24897;53.514;10.482;2022-11-20T09:17:18;36.77;;;31.73;;
23682;SDS011;24897;53.514;10.482;2022-11-20T09:20:04;35.30;;;31.40;;
23682;SDS011;24897;53.514;10.482;2022-11-20T09:22:49;35.10;;;31.30;;
23682;SDS011;24897;53.514;10.482;2022-11-20T09:25:33;48.93;;;37.63;;
23682;SDS011;24897;53.514;10.482;2022-11-20T09:28:18;41.10;;;33.43;;
23682;SDS011;24897;53.514;10.482;2022-11-20T09:31:06;35.80;;;31.93;;
23682;SDS011;24897;53.514;10.482;2022-11-20T09:34:01;38.37;;;32.20;;
23682;SDS011;24897;53.514;10.482;2022-11-20T09:36:45;37.70;;;31.93;;
23682;SDS011;24897;53.514;10.482;2022-11-20T09:39:30;34.40;;;30.40;;
23682;SDS011;24897;53.514;10.482;2022-11-20T09:42:17;35.47;;;31.23;;
23682;SDS011;24897;53.514;10.482;2022-11-20T09:57:01;34.93;;;31.13;;
23682;SDS011;24897;53.514;10.482;2022-11-20T10:02:44;34.23;;;30.63;;
23682;SDS011;24897;53.514;10.482;2022-11-20T10:08:34;35.30;;;31.70;;
23682;SDS011;24897;53.514;10.482;2022-11-20T10:20:46;35.10;;;31.70;;
23682;SDS011;24897;53.514;10.482;2022-11-20T10:26:58;40.17;;;36.17;;
23682;SDS011;24897;53.514;10.482;2022-11-20T10:30:14;35.30;;;32.10;;
23682;SDS011;24897;53.514;10.482;2022-11-20T10:33:05;37.33;;;33.63;;
23682;SDS011;24897;53.514;10.482;2022-11-20T10:39:36;33.93;;;30.53;;
23682;SDS011;24897;53.514;10.482;2022-11-20T10:48:23;48.77;;;39.57;;
23682;SDS011;24897;53.514;10.482;2022-11-20T10:51:27;41.20;;;36.87;;
23682;SDS011;24897;53.514;10.482;2022-11-20T10:54:19;34.43;;;31.13;;
23682;SDS011;24897;53.514;10.482;2022-11-20T10:57:29;32.13;;;29.07;;
23682;SDS011;24897;53.514;10.482;2022-11-20T11:00:40;33.47;;;30.20;;
23682;SDS011;24897;53.514;10.482;2022-11-20T11:03:26;33.83;;;30.63;;
23682;SDS011;24897;53.514;10.482;2022-11-20T11:06:23;36.80;;;33.40;;
23682;SDS011;24897;53.514;10.482;2022-11-20T11:09:24;34.87;;;31.67;;
23682;SDS011;24897;53.514;10.482;2022-11-20T11:12:25;36.60;;;33.10;;
23682;SDS011;24897;53.514;10.482;2022-11-20T11:15:12;34.93;;;31.53;;
23682;SDS011;24897;53.514;10.482;2022-11-20T11:18:08;32.97;;;29.97;;
23682;SDS011;24897;53.514;10.482;2022-11-20T11:20:54;33.47;;;30.47;;
23682;SDS011;24897;53.514;10.482;2022-11-20T11:23:42;26.47;;;24.27;;
23682;SDS011;24897;53.514;10.482;2022-11-20T11:26:27;22.40;;;20.70;;
23682;SDS011;24897;53.514;10.482;2022-11-20T11:29:15;23.37;;;21.37;;
23682;SDS011;24897;53.514;10.482;2022-11-20T11:32:03;23.60;;;21.60;;
23682;SDS011;24897;53.514;10.482;2022-11-20T11:35:04;21.23;;;19.53;;
23682;SDS011;24897;53.514;10.482;2022-11-20T11:37:51;21.37;;;19.60;;
23682;SDS011;24897;53.514;10.482;2022-11-20T11:40:37;22.80;;;20.90;;
23682;SDS011;24897;53.514;10.482;2022-11-20T11:43:24;23.07;;;21.27;;
23682;SDS011;24897;53.514;10.482;2022-11-20T11:46:30;28.73;;;26.23;;
23682;SDS011;24897;53.514;10.482;2022-11-20T11:49:17;29.20;;;26.80;;
23682;SDS011;24897;53.514;10.482;2022-11-20T11:52:16;29.70;;;27.30;;
23682;SDS011;24897;53.514;10.482;2022-11-20T11:55:03;34.17;;;31.17;;
23682;SDS011;24897;53.514;10.482;2022-11-20T11:58:08;34.57;;;31.37;;
23682;SDS011;24897;53.514;10.482;2022-11-20T12:04:23;31.93;;;29.33;;
23682;SDS011;24897;53.514;10.482;2022-11-20T12:07:15;31.07;;;28.27;;
23682;SDS011;24897;53.514;10.482;2022-11-20T12:10:06;30.90;;;28.40;;
23682;SDS011;24897;53.514;10.482;2022-11-20T12:16:04;29.50;;;27.10;;
23682;SDS011;24897;53.514;10.482;2022-11-20T12:18:49;29.63;;;27.20;;
23682;SDS011;24897;53.514;10.482;2022-11-20T12:21:39;28.80;;;26.30;;
23682;SDS011;24897;53.514;10.482;2022-11-20T12:28:10;28.30;;;25.80;;
23682;SDS011;24897;53.514;10.482;2022-11-20T12:40:48;28.93;;;26.60;;
23682;SDS011;24897;53.514;10.482;2022-11-20T12:43:47;28.53;;;26.33;;
23682;SDS011;24897;53.514;10.482;2022-11-20T12:49:56;28.47;;;26.27;;
23682;SDS011;24897;53.514;10.482;2022-11-20T13:02:41;27.40;;;25.20;;
23682;SDS011;24897;53.514;10.482;2022-11-20T13:09:01;19.30;;;17.80;;
23682;SDS011;24897;53.514;10.482;2022-11-20T13:15:22;18.07;;;16.67;;
23682;SDS011;24897;53.514;10.482;2022-11-20T13:18:19;21.23;;;19.53;;
23682;SDS011;24897;53.514;10.482;2022-11-20T13:21:12;22.77;;;20.97;;
23682;SDS011;24897;53.514;10.482;2022-11-20T13:24:05;26.10;;;23.90;;
23682;SDS011;24897;53.514;10.482;2022-11-20T13:27:32;29.83;;;27.07;;
23682;SDS011;24897;53.514;10.482;2022-11-20T13:30:17;32.80;;;30.03;;
23682;SDS011;24897;53.514;10.482;2022-11-20T13:33:06;29.57;;;27.13;;
23682;SDS011;24897;53.514;10.482;2022-11-20T13:36:00;31.50;;;28.70;;
23682;SDS011;24897;53.514;10.482;2022-11-20T13:38:50;26.87;;;24.77;;
23682;SDS011;24897;53.514;10.482;2022-11-20T13:41:39;28.33;;;26.10;;
23682;SDS011;24897;53.514;10.482;2022-11-20T13:44:29;26.97;;;24.93;;
23682;SDS011;24897;53.514;10.482;2022-11-20T13:47:25;28.63;;;26.43;;
23682;SDS011;24897;53.514;10.482;2022-11-20T13:50:13;29.77;;;27.47;;
23682;SDS011;24897;53.514;10.482;2022-11-20T13:53:24;29.40;;;27.20;;
23682;SDS011;24897;53.514;10.482;2022-11-20T13:56:48;31.70;;;29.10;;
23682;SDS011;24897;53.514;10.482;2022-11-20T14:02:25;31.80;;;29.10;;
23682;SDS011;24897;53.514;10.482;2022-11-20T14:05:17;31.57;;;28.97;;
23682;SDS011;24897;53.514;10.482;2022-11-20T14:08:06;31.10;;;28.40;;
23682;SDS011;24897;53.514;10.482;2022-11-20T14:11:30;31.33;;;28.50;;
23682;SDS011;24897;53.514;10.482;2022-11-20T14:20:15;29.07;;;26.77;;
23682;SDS011;24897;53.514;10.482;2022-11-20T14:23:02;30.90;;;28.10;;
23682;SDS011;24897;53.514;10.482;2022-11-20T14:25:48;29.50;;;27.00;;
23682;SDS011;24897;53.514;10.482;2022-11-20T14:28:32;31.83;;;29.13;;
23682;SDS011;24897;53.514;10.482;2022-11-20T14:31:19;31.90;;;29.20;;
23682;SDS011;24897;53.514;10.482;2022-11-20T14:34:15;31.43;;;28.83;;
23682;SDS011;24897;53.514;10.482;2022-11-20T14:37:13;31.77;;;29.17;;
23682;SDS011;24897;53.514;10.482;2022-11-20T14:43:17;30.20;;;27.70;;
23682;SDS011;24897;53.514;10.482;2022-11-20T14:46:08;30.10;;;27.60;;
23682;SDS011;24897;53.514;10.482;2022-11-20T14:48:55;31.90;;;29.20;;
23682;SDS011;24897;53.514;10.482;2022-11-20T14:51:40;31.47;;;28.87;;
23682;SDS011;24897;53.514;10.482;2022-11-20T14:54:28;35.23;;;31.87;;
23682;SDS011;24897;53.514;10.482;2022-11-20T15:02:59;32.43;;;29.63;;
23682;SDS011;24897;53.514;10.482;2022-11-20T15:05:45;31.63;;;28.87;;
23682;SDS011;24897;53.514;10.482;2022-11-20T15:08:31;31.27;;;28.47;;
23682;SDS011;24897;53.514;10.482;2022-11-20T15:11:17;31.77;;;28.97;;
23682;SDS011;24897;53.514;10.482;2022-11-20T15:14:04;32.70;;;29.87;;
23682;SDS011;24897;53.514;10.482;2022-11-20T15:16:50;32.13;;;29.33;;
23682;SDS011;24897;53.514;10.482;2022-11-20T15:19:35;31.93;;;29.13;;
23682;SDS011;24897;53.514;10.482;2022-11-20T15:22:20;32.33;;;29.37;;
23682;SDS011;24897;53.514;10.482;2022-11-20T15:25:11;31.83;;;28.93;;
23682;SDS011;24897;53.514;10.482;2022-11-20T15:27:56;30.30;;;27.60;;
23682;SDS011;24897;53.514;10.482;2022-11-20T15:30:41;31.67;;;28.83;;
23682;SDS011;24897;53.514;10.482;2022-11-20T15:33:25;30.57;;;27.83;;
23682;SDS011;24897;53.514;10.482;2022-11-20T15:36:09;30.93;;;28.23;;
23682;SDS011;24897;53.514;10.482;2022-11-20T15:38:53;31.20;;;28.40;;
23682;SDS011;24897;53.514;10.482;2022-11-20T15:41:38;31.97;;;29.03;;
23682;SDS011;24897;53.514;10.482;2022-11-20T15:44:23;31.53;;;28.83;;
23682;SDS011;24897;53.514;10.482;2022-11-20T15:47:07;31.73;;;28.83;;
23682;SDS011;24897;53.514;10.482;2022-11-20T15:49:53;30.97;;;28.10;;
23682;SDS011;24897;53.514;10.482;2022-11-20T15:52:37;31.70;;;28.70;;
23682;SDS011;24897;53.514;10.482;2022-11-20T15:55:21;32.97;;;29.97;;
23682;SDS011;24897;53.514;10.482;2022-11-20T15:58:05;31.73;;;28.83;;
23682;SDS011;24897;53.514;10.482;2022-11-20T16:00:49;31.93;;;29.03;;
23682;SDS011;24897;53.514;10.482;2022-11-20T16:03:33;33.07;;;29.97;;
23682;SDS011;24897;53.514;10.482;2022-11-20T16:06:17;32.47;;;29.37;;
23682;SDS011;24897;53.514;10.482;2022-11-20T16:09:02;31.80;;;28.80;;
23682;SDS011;24897;53.514;10.482;2022-11-20T16:11:47;33.20;;;30.00;;
23682;SDS011;24897;53.514;10.482;2022-11-20T16:14:31;34.43;;;30.90;;
23682;SDS011;24897;53.514;10.482;2022-11-20T16:17:34;34.20;;;30.80;;
23682;SDS011;24897;53.514;10.482;2022-11-20T16:20:28;38.53;;;34.40;;
23682;SDS011;24897;53.514;10.482;2022-11-20T16:23:13;33.83;;;30.43;;
23682;SDS011;24897;53.514;10.482;2022-11-20T16:25:57;35.93;;;32.17;;
23682;SDS011;24897;53.514;10.482;2022-11-20T16:28:42;36.07;;;32.33;;
23682;SDS011;24897;53.514;10.482;2022-11-20T16:31:26;36.07;;;32.27;;
23682;SDS011;24897;53.514;10.482;2022-11-20T16:34:11;36.33;;;32.77;;
23682;SDS011;24897;53.514;10.482;2022-11-20T16:36:55;35.23;;;31.83;;
23682;SDS011;24897;53.514;10.482;2022-11-20T16:39:39;33.43;;;30.33;;
23682;SDS011;24897;53.514;10.482;2022-11-20T16:42:23;33.17;;;30.10;;
23682;SDS011;24897;53.514;10.482;2022-11-20T16:45:08;31.40;;;28.37;;
23682;SDS011;24897;53.514;10.482;2022-11-20T16:47:53;32.50;;;29.50;;
23682;SDS011;24897;53.514;10.482;2022-11-20T16:50:43;31.40;;;28.40;;
23682;SDS011;24897;53.514;10.482;2022-11-20T16:53:32;31.87;;;28.87;;
23682;SDS011;24897;53.514;10.482;2022-11-20T16:56:17;34.27;;;30.83;;
23682;SDS011;24897;53.514;10.482;2022-11-20T16:59:03;34.17;;;30.80;;
23682;SDS011;24897;53.514;10.482;2022-11-20T17:01:48;30.77;;;27.77;;
23682;SDS011;24897;53.514;10.482;2022-11-20T17:04:32;31.80;;;28.70;;
23682;SDS011;24897;53.514;10.482;2022-11-20T17:07:16;31.90;;;28.77;;
23682;SDS011;24897;53.514;10.482;2022-11-20T17:10:01;31.30;;;28.10;;
23682;SDS011;24897;53.514;10.482;2022-11-20T17:12:46;32.90;;;29.70;;
23682;SDS011;24897;53.514;10.482;2022-11-20T17:15:30;43.63;;;39.07;;
23682;SDS011;24897;53.514;10.482;2022-11-20T17:18:14;56.87;;;47.43;;
23682;SDS011;24897;53.514;10.482;2022-11-20T17:20:58;44.10;;;39.57;;
23682;SDS011;24897;53.514;10.482;2022-11-20T17:23:47;42.87;;;38.67;;
23682;SDS011;24897;53.514;10.482;2022-11-20T17:26:32;39.03;;;35.23;;
23682;SDS011;24897;53.514;10.482;2022-11-20T17:29:17;38.53;;;34.63;;
23682;SDS011;24897;53.514;10.482;2022-11-20T17:32:06;38.63;;;34.73;;
23682;SDS011;24897;53.514;10.482;2022-11-20T17:34:50;40.80;;;36.40;;
23682;SDS011;24897;53.514;10.482;2022-11-20T17:37:34;56.30;;;43.30;;
23682;SDS011;24897;53.514;10.482;2022-11-20T17:40:18;49.00;;;39.80;;
23682;SDS011;24897;53.514;10.482;2022-11-20T17:43:03;46.07;;;39.80;;
23682;SDS011;24897;53.514;10.482;2022-11-20T17:45:47;48.93;;;40.50;;
23682;SDS011;24897;53.514;10.482;2022-11-20T17:48:32;43.50;;;38.53;;